Portada
METAR-TAF:

METAR-TAF

Aeroports :

Palembang, Indonèsia

latitud: 02-54S, longitud: 104-42E, altitud: 10 m

Observació

L'informe es va fer fa 44 minuts, a les 03:30 UTC
Vent 7 kt del Est/Sud-Est
Temperatura 32°C
Humitat 63%
Pressió 1009 hPa
Visibilitat 10 km o més
Cel ennuvolat a una alçada de 1000 ft

METAR: WIPP 110330Z 12007KT 9999 BKN010 32/24 Q1009 NOSIG

Hora: 11:14 (04:14 UTC)

Pronòstic

L'informe es va fer fa 5 hores i 14 minuts, a les 23:00 UTC
Pronòstic vàlid del 11 a les 00 UTC al 11 a les 24 UTC
Vent 8 kt del Est/Sud-Est
Visibilitat 10 km o més
Núvols disperses a una alçada de 1000 ft
Evolucionant progressivament
l' 11 a les 18 UTC al 11 a les 20 UTC
Visibilitat: 3000 m
boirina

TAF: WIPP 102300Z 1100/1124 12008KT 9999 SCT010 BECMG 1118/1120 3000 BR

Observacions i pronòstics meteorològics de més de 4000 aeroports (METAR i TAF).

Les estacions disponibles són els punts grocs i vermells al mapa.

Posi el ratolí al punt desitjat per veure el nom de l'estació.

Feu clic per veure les observacions i els pronòstics meteorològics.

Per canviar el mapa: feu clic els botons verds amb una creu de color negre per apropar; al botó verd amb un guió per allunyar la imatge; o en les fletxes verdes per a mapes adjacents.


METAR-TAF: